South Londonderry, Pennsylvania
Current Conditions -  °F | °C
As of 9:56 PM on Tuesday 21 Oct 2014 (Local Time) from KMDT Reporting Station
Overcast Overcast  
Wind Chill: 54°   Ceiling: 12000
Heat Index: 54°   Visibility: 10mi
Dew Point: 48°   Wind: 10mph
Humidity: 80%   Direction: 310°NW
Pressure: 29.91"   Gusts: NA
Location:  40.2634°N, 76.626°W
Report Text: KMDT 220156Z 31009KT 10SM FEW040 SCT070 OVC120 12/09 A2991 RMK AO2 SLP128 T01220089
Loading
Personal Weather Stations






























Interactive Weather Map
Tropical Storm Tracking
New forecast layout! Learn more

10-Day Weather Forecast

Advertisements
Track Severe Weather on mobile